Time;durP1;ratioP1;P1;durP2;ratioP2;P2;SDS_P1;SDS_P2;PMS_P1;PMS_P2;Temp;Humidity;BMP_temperature;BMP_pressure;BME280_temperature;BME280_humidity;BME280_pressure;Samples;Min_cycle;Max_cycle;Signal;HPM_P1;HPM_P2
2022/12/08 00:00:21;;;;;;;0.60;0.60;;;-11.10;99.90;;;;;;5076232;28;20211;-81
2022/12/08 00:02:47;;;;;;;0.53;0.53;;;-11.10;99.90;;;;;;5094666;28;20199;-81
2022/12/08 00:10:44;;;;;;;1.67;1.57;;;-11.10;99.90;;;;;;5094242;28;20247;-81
2022/12/08 00:13:10;;;;;;;0.60;0.60;;;-11.10;99.90;;;;;;5099898;28;20244;-82
2022/12/08 00:15:35;;;;;;;0.80;0.80;;;-11.10;99.90;;;;;;5114639;28;20606;-81
2022/12/08 00:18:01;;;;;;;0.60;0.60;;;-11.10;99.90;;;;;;5096513;28;20196;-81
2022/12/08 00:20:27;;;;;;;0.60;0.60;;;-11.10;99.90;;;;;;5096259;28;20203;-81
2022/12/08 00:22:52;;;;;;;0.60;0.60;;;-11.10;99.90;;;;;;5112725;28;20244;-81
2022/12/08 00:25:18;;;;;;;6.27;3.07;;;-11.10;99.90;;;;;;5076069;28;20207;-80
2022/12/08 00:27:44;;;;;;;1.00;1.00;;;-11.10;99.90;;;;;;5094271;28;20197;-81
2022/12/08 00:30:10;;;;;;;0.90;0.90;;;-11.10;99.90;;;;;;5094044;28;20605;-81
2022/12/08 00:32:37;;;;;;;1.00;0.97;;;-11.10;99.90;;;;;;5093971;28;20195;-81
2022/12/08 00:35:03;;;;;;;0.60;0.60;;;-11.10;99.90;;;;;;5102283;28;20192;-81
2022/12/08 00:37:28;;;;;;;0.60;0.60;;;-11.10;99.90;;;;;;5114012;28;20210;-81
2022/12/08 00:39:54;;;;;;;0.60;0.60;;;-11.10;99.90;;;;;;5095328;28;20239;-81
2022/12/08 00:42:20;;;;;;;1.23;1.17;;;-11.00;99.90;;;;;;5114025;28;20252;-80
2022/12/08 00:44:46;;;;;;;5.53;2.20;;;-11.00;99.90;;;;;;5096122;28;20209;-81
2022/12/08 00:47:13;;;;;;;0.60;0.60;;;-11.00;99.90;;;;;;5096113;28;20199;-81
2022/12/08 00:49:39;;;;;;;1.43;1.33;;;-11.00;99.90;;;;;;5095787;28;20263;-80
2022/12/08 00:52:05;;;;;;;0.60;0.60;;;-11.00;99.90;;;;;;5114312;28;20191;-80
2022/12/08 00:54:31;;;;;;;0.60;0.60;;;-11.10;99.90;;;;;;5095204;28;20195;-80
2022/12/08 00:56:57;;;;;;;2.17;1.90;;;-11.10;99.90;;;;;;5114100;28;20195;-81
2022/12/08 00:59:22;;;;;;;0.60;0.60;;;-11.10;99.90;;;;;;5113714;28;20207;-81
2022/12/08 01:01:48;;;;;;;1.17;1.17;;;-11.20;99.90;;;;;;5113788;28;20198;-81
2022/12/08 01:04:16;;;;;;;0.63;0.63;;;-11.30;99.90;;;;;;5113877;28;20187;-80
2022/12/08 01:06:43;;;;;;;0.70;0.70;;;-11.40;99.90;;;;;;5095196;28;20286;-80
2022/12/08 01:09:10;;;;;;;0.53;0.53;;;-11.30;99.90;;;;;;5095462;28;20244;-80
2022/12/08 01:11:36;;;;;;;0.60;0.60;;;-11.30;99.90;;;;;;5095344;28;20282;-80
2022/12/08 01:14:02;;;;;;;0.60;0.60;;;-11.40;99.90;;;;;;5113636;28;20226;-81
2022/12/08 01:16:30;;;;;;;0.77;0.77;;;-11.40;99.90;;;;;;5095404;28;20211;-81
2022/12/08 01:18:57;;;;;;;4.00;2.20;;;-11.50;99.90;;;;;;5095458;28;20211;-81
2022/12/08 01:21:23;;;;;;;0.60;0.60;;;-11.60;99.90;;;;;;5095437;28;20681;-81
2022/12/08 01:23:49;;;;;;;0.57;0.57;;;-11.50;99.90;;;;;;5084998;28;20192;-81
2022/12/08 01:26:17;;;;;;;0.60;0.60;;;-11.50;99.90;;;;;;5093198;28;20192;-81
2022/12/08 01:28:45;;;;;;;1.77;1.67;;;-11.50;99.90;;;;;;5093296;28;20556;-81
2022/12/08 01:31:15;;;;;;;0.60;0.60;;;-11.50;99.90;;;;;;5100622;28;20199;-81
2022/12/08 01:33:42;;;;;;;0.70;0.70;;;-11.50;99.90;;;;;;5113294;28;20199;-80
2022/12/08 01:36:17;;;;;;;0.60;0.60;;;-11.50;99.90;;;;;;5095227;28;20210;-80
2022/12/08 01:38:42;;;;;;;3.67;2.83;;;-11.40;99.90;;;;;;5113425;28;20642;-81
2022/12/08 01:41:13;;;;;;;0.60;0.60;;;-11.40;99.90;;;;;;5081975;28;20356;-81
2022/12/08 01:43:49;;;;;;;0.60;0.60;;;-11.30;99.90;;;;;;5074831;28;20633;-81
2022/12/08 01:46:15;;;;;;;0.60;0.60;;;-11.30;99.90;;;;;;5092859;28;20188;-81
2022/12/08 01:48:41;;;;;;;0.60;0.60;;;-11.30;99.90;;;;;;5092697;28;20203;-81
2022/12/08 01:51:06;;;;;;;0.50;0.50;;;-11.20;99.90;;;;;;5074975;28;20200;-81
2022/12/08 01:53:32;;;;;;;0.60;0.60;;;-11.20;99.90;;;;;;5092880;28;20250;-81
2022/12/08 01:56:05;;;;;;;0.60;0.60;;;-11.20;99.90;;;;;;5092548;28;20222;-81
2022/12/08 01:58:35;;;;;;;0.70;0.70;;;-11.20;99.90;;;;;;5091147;28;20730;-80
2022/12/08 02:01:01;;;;;;;0.60;0.60;;;-11.20;99.90;;;;;;5091771;28;20675;-81
2022/12/08 02:03:42;;;;;;;0.50;0.50;;;-11.10;99.90;;;;;;5092873;28;20195;-81
2022/12/08 02:06:08;;;;;;;0.60;0.60;;;-11.00;99.90;;;;;;5074252;28;20192;-81
2022/12/08 02:08:38;;;;;;;0.60;0.60;;;-11.00;99.90;;;;;;5096099;28;20631;-82
2022/12/08 02:11:07;;;;;;;0.60;0.60;;;-10.90;99.90;;;;;;5096450;28;20180;-81
2022/12/08 02:13:33;;;;;;;0.60;0.60;;;-10.80;99.90;;;;;;5094456;28;20635;-81
2022/12/08 02:16:39;;;;;;;0.60;0.60;;;-10.80;99.90;;;;;;5096368;28;20318;-81
2022/12/08 02:19:23;;;;;;;0.60;0.60;;;-10.80;99.90;;;;;;5096318;28;20328;-82
2022/12/08 02:22:08;;;;;;;0.60;0.60;;;-10.80;99.90;;;;;;5096148;28;20574;-81
2022/12/08 02:24:45;;;;;;;0.60;0.60;;;-10.80;99.90;;;;;;5096192;28;20199;-81
2022/12/08 02:27:32;;;;;;;0.50;0.50;;;-10.80;99.90;;;;;;5077777;28;20664;-82
2022/12/08 02:30:17;;;;;;;0.50;0.50;;;-10.80;99.90;;;;;;5095860;28;20195;-81
2022/12/08 02:32:49;;;;;;;0.53;0.53;;;-10.90;99.90;;;;;;5095507;28;20188;-81
2022/12/08 02:35:32;;;;;;;0.50;0.50;;;-10.90;99.90;;;;;;5094287;28;20200;-81
2022/12/08 02:38:04;;;;;;;0.60;0.60;;;-10.90;99.90;;;;;;5095778;28;20643;-81
2022/12/08 02:40:41;;;;;;;0.57;0.57;;;-10.90;99.90;;;;;;5102980;28;20288;-80
2022/12/08 02:43:22;;;;;;;0.60;0.60;;;-10.80;99.90;;;;;;5115957;28;20192;-80
2022/12/08 02:45:54;;;;;;;0.50;0.50;;;-10.80;99.90;;;;;;5115616;28;20233;-81
2022/12/08 02:48:20;;;;;;;1.17;1.10;;;-10.80;99.90;;;;;;5080306;28;20291;-80
2022/12/08 02:50:45;;;;;;;0.60;0.60;;;-10.80;99.90;;;;;;5097724;28;20234;-81
2022/12/08 02:53:11;;;;;;;0.50;0.50;;;-10.80;99.90;;;;;;5115659;28;20195;-81
2022/12/08 02:55:48;;;;;;;0.60;0.60;;;-10.70;99.90;;;;;;5097229;28;20200;-81
2022/12/08 02:58:34;;;;;;;0.60;0.60;;;-10.70;99.90;;;;;;5097499;28;20203;-82
2022/12/08 03:01:18;;;;;;;0.60;0.60;;;-10.70;99.90;;;;;;5114870;28;20242;-82
2022/12/08 03:04:00;;;;;;;0.53;0.53;;;-10.60;99.90;;;;;;5115849;28;20642;-81
2022/12/08 03:06:47;;;;;;;0.60;0.60;;;-10.60;99.90;;;;;;5098283;28;20676;-81
2022/12/08 03:09:17;;;;;;;0.60;0.60;;;-10.50;99.90;;;;;;5098537;28;20199;-81
2022/12/08 03:12:22;;;;;;;0.60;0.60;;;-10.40;99.90;;;;;;5097818;28;20200;-81
2022/12/08 03:14:52;;;;;;;0.60;0.60;;;-10.40;99.90;;;;;;5114621;28;20191;-81
2022/12/08 03:17:22;;;;;;;0.50;0.50;;;-10.30;99.90;;;;;;5116321;28;20282;-81
2022/12/08 03:19:48;;;;;;;0.50;0.50;;;-10.30;99.90;;;;;;5097483;28;20303;-82
2022/12/08 03:22:18;;;;;;;0.50;0.50;;;-10.20;99.90;;;;;;5116076;28;20195;-82
2022/12/08 03:24:45;;;;;;;0.50;0.50;;;-10.20;99.90;;;;;;5114317;28;20569;-81
2022/12/08 03:27:23;;;;;;;2.30;1.43;;;-10.10;99.90;;;;;;5097448;28;20203;-81
2022/12/08 03:29:52;;;;;;;1.13;1.13;;;-10.00;99.90;;;;;;5115795;28;20651;-81
2022/12/08 03:32:46;;;;;;;0.50;0.50;;;-10.00;99.90;;;;;;5097303;28;20204;-81
2022/12/08 03:35:15;;;;;;;0.50;0.50;;;-10.00;99.90;;;;;;5115790;28;20557;-80
2022/12/08 03:37:41;;;;;;;0.50;0.50;;;-9.90;99.90;;;;;;5096877;28;20268;-81
2022/12/08 03:40:11;;;;;;;0.50;0.50;;;-9.90;99.90;;;;;;5096744;28;20227;-81
2022/12/08 03:42:37;;;;;;;0.60;0.60;;;-9.80;99.90;;;;;;5115642;28;20191;-81
2022/12/08 03:45:03;;;;;;;0.50;0.50;;;-9.80;99.90;;;;;;5098346;28;20192;-83
2022/12/08 03:47:29;;;;;;;0.50;0.50;;;-9.70;99.90;;;;;;5115178;28;20226;-81
2022/12/08 03:49:55;;;;;;;0.60;0.60;;;-9.70;99.90;;;;;;5115366;28;20192;-82
2022/12/08 03:52:20;;;;;;;0.70;0.70;;;-9.80;99.90;;;;;;5115557;28;20187;-81
2022/12/08 03:54:46;;;;;;;0.60;0.60;;;-9.80;99.90;;;;;;5115651;28;20196;-82
2022/12/08 03:57:12;;;;;;;0.50;0.50;;;-9.80;99.90;;;;;;5115753;28;20677;-82
2022/12/08 03:59:38;;;;;;;1.63;1.53;;;-9.70;99.90;;;;;;5115127;28;20218;-82
2022/12/08 04:02:03;;;;;;;0.60;0.60;;;-9.80;99.90;;;;;;5114206;27;20192;-82
2022/12/08 04:04:29;;;;;;;0.60;0.60;;;-9.70;99.90;;;;;;5096159;28;20249;-82
2022/12/08 04:06:54;;;;;;;0.60;0.60;;;-9.70;99.90;;;;;;5096774;28;20202;-81
2022/12/08 04:09:20;;;;;;;0.50;0.50;;;-9.70;99.90;;;;;;5108481;28;20203;-81
2022/12/08 04:11:46;;;;;;;0.87;0.87;;;-9.60;99.90;;;;;;5114696;28;20260;-82
2022/12/08 04:14:11;;;;;;;0.70;0.70;;;-9.60;99.90;;;;;;5114656;28;20557;-82
2022/12/08 04:16:37;;;;;;;0.60;0.60;;;-9.60;99.90;;;;;;5114668;28;20198;-81
2022/12/08 04:19:03;;;;;;;0.63;0.63;;;-9.60;99.90;;;;;;5112066;28;20210;-81
2022/12/08 04:21:29;;;;;;;0.60;0.60;;;-9.60;99.90;;;;;;5114648;28;20282;-81
2022/12/08 04:23:54;;;;;;;0.60;0.60;;;-9.60;99.90;;;;;;5114424;28;20190;-82
2022/12/08 04:26:20;;;;;;;0.60;0.60;;;-9.70;99.90;;;;;;5096369;28;20187;-80
2022/12/08 04:28:46;;;;;;;0.53;0.53;;;-9.60;99.90;;;;;;5114426;28;20191;-82
2022/12/08 04:31:12;;;;;;;0.50;0.50;;;-9.70;99.90;;;;;;5095398;28;20561;-81
2022/12/08 04:33:37;;;;;;;0.50;0.50;;;-9.70;99.90;;;;;;5095984;28;20191;-81
2022/12/08 04:36:04;;;;;;;2.87;2.57;;;-9.70;99.90;;;;;;5114404;28;20192;-81
2022/12/08 04:38:31;;;;;;;0.60;0.60;;;-9.70;99.90;;;;;;5113883;28;20272;-82
2022/12/08 04:40:56;;;;;;;0.50;0.50;;;-9.70;99.90;;;;;;5113988;28;20227;-82
2022/12/08 04:43:22;;;;;;;0.60;0.60;;;-9.70;99.90;;;;;;5114044;28;20278;-81
2022/12/08 04:45:48;;;;;;;0.60;0.60;;;-9.70;99.90;;;;;;5114258;28;20192;-82
2022/12/08 04:48:14;;;;;;;0.60;0.60;;;-9.70;99.90;;;;;;5114171;28;20535;-82
2022/12/08 04:50:42;;;;;;;0.70;0.70;;;-9.80;99.90;;;;;;5113967;28;20187;-82
2022/12/08 04:53:08;;;;;;;0.57;0.57;;;-9.80;99.90;;;;;;5114376;28;20220;-82
2022/12/08 04:55:36;;;;;;;0.60;0.60;;;-9.90;99.90;;;;;;5113978;28;20735;-84
2022/12/08 04:58:02;;;;;;;0.50;0.50;;;-10.00;99.90;;;;;;5095768;28;20565;-81
2022/12/08 05:00:28;;;;;;;0.50;0.50;;;-10.10;99.90;;;;;;5113790;28;20210;-81
2022/12/08 05:02:53;;;;;;;0.50;0.50;;;-10.10;99.90;;;;;;5113951;28;20184;-81
2022/12/08 05:05:19;;;;;;;0.60;0.60;;;-10.20;99.90;;;;;;5096100;28;20214;-80
2022/12/08 05:07:45;;;;;;;1.57;1.47;;;-10.30;99.90;;;;;;5114088;28;20270;-81
2022/12/08 05:10:10;;;;;;;0.50;0.50;;;-10.30;99.90;;;;;;5095523;28;20294;-81
2022/12/08 05:12:36;;;;;;;0.60;0.60;;;-10.40;99.90;;;;;;5113271;28;20200;-80
2022/12/08 05:15:02;;;;;;;0.50;0.50;;;-10.40;99.90;;;;;;5113755;28;20191;-81
2022/12/08 05:17:28;;;;;;;0.60;0.60;;;-10.50;99.90;;;;;;5095489;28;20227;-80
2022/12/08 05:19:54;;;;;;;0.60;0.60;;;-10.50;99.90;;;;;;5093290;28;20247;-81
2022/12/08 05:22:19;;;;;;;0.50;0.50;;;-10.50;99.90;;;;;;5093400;28;20191;-83
2022/12/08 05:24:45;;;;;;;0.60;0.60;;;-10.50;99.90;;;;;;5093089;28;20199;-80
2022/12/08 05:27:11;;;;;;;0.50;0.50;;;-10.60;99.90;;;;;;5091853;28;20200;-82
2022/12/08 05:29:36;;;;;;;1.67;1.57;;;-10.60;99.90;;;;;;5093239;28;20200;-81
2022/12/08 05:32:02;;;;;;;0.50;0.50;;;-10.70;99.90;;;;;;5093090;28;20254;-81
2022/12/08 05:34:28;;;;;;;0.60;0.60;;;-10.70;99.90;;;;;;5093412;28;20200;-80
2022/12/08 05:36:54;;;;;;;0.60;0.60;;;-10.70;99.90;;;;;;5092016;28;20241;-81
2022/12/08 05:39:19;;;;;;;0.60;0.60;;;-10.80;99.90;;;;;;5093280;28;20307;-81
2022/12/08 05:41:45;;;;;;;0.50;0.50;;;-10.80;99.90;;;;;;5095046;28;20657;-81
2022/12/08 05:44:11;;;;;;;0.50;0.50;;;-10.80;99.90;;;;;;5097132;28;20199;-81
2022/12/08 05:46:36;;;;;;;0.70;0.70;;;-10.90;99.90;;;;;;5096776;28;20600;-80
2022/12/08 05:49:03;;;;;;;0.60;0.60;;;-10.90;99.90;;;;;;5095731;28;20286;-80
2022/12/08 05:51:29;;;;;;;0.50;0.50;;;-11.00;99.90;;;;;;5102091;28;20195;-80
2022/12/08 05:53:55;;;;;;;0.70;0.70;;;-11.00;99.90;;;;;;5117376;28;20240;-82
2022/12/08 05:56:21;;;;;;;0.60;0.60;;;-11.00;99.90;;;;;;5098962;28;20202;-82
2022/12/08 05:58:47;;;;;;;0.60;0.60;;;-11.10;99.90;;;;;;5117206;28;20196;-83
2022/12/08 06:01:22;;;;;;;0.60;0.60;;;-11.10;99.90;;;;;;5098736;28;20207;-83
2022/12/08 06:03:48;;;;;;;0.60;0.60;;;-11.10;99.90;;;;;;5082154;28;20245;-82
2022/12/08 06:06:14;;;;;;;0.60;0.60;;;-11.10;99.90;;;;;;5099117;28;20222;-81
2022/12/08 06:08:39;;;;;;;0.80;0.80;;;-11.20;99.90;;;;;;5117198;28;21244;-81
2022/12/08 06:11:05;;;;;;;0.50;0.50;;;-11.20;99.90;;;;;;5117013;28;20199;-81
2022/12/08 06:13:31;;;;;;;0.60;0.60;;;-11.20;99.90;;;;;;5116433;28;20199;-81
2022/12/08 06:16:03;;;;;;;0.60;0.60;;;-11.10;99.90;;;;;;5116900;28;20203;-81
2022/12/08 06:18:29;;;;;;;0.50;0.50;;;-11.20;99.90;;;;;;5117417;28;20210;-81
2022/12/08 06:21:06;;;;;;;0.50;0.50;;;-11.20;99.90;;;;;;5116581;28;20207;-83
2022/12/08 06:23:31;;;;;;;0.53;0.53;;;-11.20;99.90;;;;;;5094551;28;20258;-84
2022/12/08 06:26:11;;;;;;;0.60;0.60;;;-11.20;99.90;;;;;;5078283;28;20192;-83
2022/12/08 06:28:38;;;;;;;0.80;0.80;;;-11.20;99.90;;;;;;5078325;28;20563;-81
2022/12/08 06:31:13;;;;;;;0.63;0.63;;;-11.20;99.90;;;;;;5101879;28;20191;-82
2022/12/08 06:33:39;;;;;;;0.60;0.60;;;-11.30;99.90;;;;;;5116365;28;20291;-82
2022/12/08 06:36:06;;;;;;;0.50;0.50;;;-11.20;99.90;;;;;;5098499;28;20624;-81
2022/12/08 06:38:32;;;;;;;0.50;0.50;;;-11.20;99.90;;;;;;5098088;28;20203;-82
2022/12/08 06:40:58;;;;;;;0.60;0.60;;;-11.20;99.90;;;;;;5098079;28;20266;-82
2022/12/08 06:43:25;;;;;;;0.60;0.60;;;-11.20;99.90;;;;;;5116877;28;20554;-82
2022/12/08 06:45:50;;;;;;;0.50;0.50;;;-11.20;99.90;;;;;;5116384;28;20205;-82
2022/12/08 06:48:18;;;;;;;0.60;0.60;;;-11.20;99.90;;;;;;5078575;28;20193;-82
2022/12/08 06:50:43;;;;;;;0.60;0.60;;;-11.20;99.90;;;;;;5075533;28;20232;-81
2022/12/08 06:53:14;;;;;;;0.60;0.60;;;-11.20;99.90;;;;;;5074822;28;20236;-82
2022/12/08 06:55:50;;;;;;;0.60;0.60;;;-11.20;99.90;;;;;;5075337;28;20196;-81
2022/12/08 06:58:16;;;;;;;0.40;0.40;;;-11.10;99.90;;;;;;5075709;28;20234;-82
2022/12/08 07:00:42;;;;;;;0.60;0.60;;;-11.10;99.90;;;;;;5057092;28;20244;-82
2022/12/08 07:03:09;;;;;;;0.63;0.63;;;-11.10;99.90;;;;;;5075466;28;20193;-81
2022/12/08 07:05:36;;;;;;;0.60;0.60;;;-11.10;99.90;;;;;;5088077;28;20215;-82
2022/12/08 07:08:02;;;;;;;0.60;0.60;;;-11.00;99.90;;;;;;5093141;28;20199;-82
2022/12/08 07:10:28;;;;;;;0.60;0.60;;;-11.00;99.90;;;;;;5095374;28;20690;-82
2022/12/08 07:12:53;;;;;;;1.00;1.00;;;-11.00;99.90;;;;;;5095406;28;20192;-81
2022/12/08 07:15:20;;;;;;;0.60;0.60;;;-11.00;99.90;;;;;;5095658;28;20207;-81
2022/12/08 07:17:47;;;;;;;0.60;0.60;;;-11.00;99.90;;;;;;5095343;28;20200;-82
2022/12/08 07:20:13;;;;;;;0.60;0.60;;;-11.00;99.90;;;;;;5095280;28;20625;-82
2022/12/08 07:22:38;;;;;;;1.23;1.23;;;-10.90;99.90;;;;;;5095042;28;20572;-82
2022/12/08 07:25:05;;;;;;;0.60;0.60;;;-10.90;99.90;;;;;;5073448;28;20200;-82
2022/12/08 07:27:30;;;;;;;0.60;0.60;;;-10.90;99.90;;;;;;5074850;28;20660;-82
2022/12/08 07:29:56;;;;;;;0.83;0.83;;;-10.80;99.90;;;;;;5074999;28;20192;-82
2022/12/08 07:32:22;;;;;;;0.50;0.50;;;-10.80;99.90;;;;;;5074450;28;20201;-82
2022/12/08 07:34:47;;;;;;;0.57;0.57;;;-10.70;99.90;;;;;;5074733;28;20204;-82
2022/12/08 07:37:13;;;;;;;0.60;0.60;;;-10.60;99.90;;;;;;5074845;28;20201;-82
2022/12/08 07:39:39;;;;;;;0.60;0.60;;;-10.60;99.90;;;;;;5073107;28;20216;-81
2022/12/08 07:42:04;;;;;;;0.60;0.60;;;-10.60;99.90;;;;;;5056372;28;20322;-83
2022/12/08 07:44:30;;;;;;;0.50;0.50;;;-10.50;99.90;;;;;;5065994;28;20569;-82
2022/12/08 07:46:56;;;;;;;0.70;0.70;;;-10.50;99.90;;;;;;5094720;28;20200;-81
2022/12/08 07:49:21;;;;;;;0.60;0.60;;;-10.40;99.90;;;;;;5076589;28;20693;-82
2022/12/08 07:51:48;;;;;;;0.50;0.50;;;-10.40;99.90;;;;;;5094616;28;20197;-81
2022/12/08 07:54:14;;;;;;;0.50;0.50;;;-10.30;99.90;;;;;;5076485;28;20200;-83
2022/12/08 07:56:39;;;;;;;0.87;0.87;;;-10.30;99.90;;;;;;5076281;28;20367;-81
2022/12/08 07:59:05;;;;;;;0.50;0.50;;;-10.30;99.90;;;;;;5094641;28;20195;-81
2022/12/08 08:01:32;;;;;;;0.50;0.50;;;-10.20;99.90;;;;;;5094393;28;20200;-82
2022/12/08 08:04:01;;;;;;;0.60;0.60;;;-10.20;99.90;;;;;;5076178;28;20614;-81
2022/12/08 08:06:27;;;;;;;0.60;0.60;;;-10.20;99.90;;;;;;5075810;28;20200;-81
2022/12/08 08:08:53;;;;;;;0.50;0.50;;;-10.20;99.90;;;;;;5094502;28;20683;-82
2022/12/08 08:11:20;;;;;;;1.63;1.53;;;-10.10;99.90;;;;;;5094767;28;20196;-80
2022/12/08 08:13:45;;;;;;;0.50;0.50;;;-10.10;99.90;;;;;;5076074;28;20261;-82
2022/12/08 08:16:12;;;;;;;0.60;0.60;;;-10.10;99.90;;;;;;5094202;28;20208;-81
2022/12/08 08:18:38;;;;;;;0.50;0.50;;;-10.10;99.90;;;;;;5094029;28;20200;-81
2022/12/08 08:21:05;;;;;;;0.60;0.60;;;-10.10;99.90;;;;;;5094188;28;20208;-81
2022/12/08 08:23:31;;;;;;;0.60;0.60;;;-10.00;99.90;;;;;;5072480;28;20200;-81
2022/12/08 08:26:04;;;;;;;0.60;0.60;;;-9.90;99.90;;;;;;5055959;28;20188;-82
2022/12/08 08:28:30;;;;;;;0.90;0.90;;;-9.90;99.90;;;;;;5075856;28;20193;-82
2022/12/08 08:30:57;;;;;;;5.70;3.17;;;-9.90;99.90;;;;;;5073798;28;20227;-82
2022/12/08 08:33:23;;;;;;;0.60;0.60;;;-9.80;99.90;;;;;;5073518;28;20284;-81
2022/12/08 08:35:49;;;;;;;0.97;0.97;;;-9.70;99.90;;;;;;5073573;28;20220;-82
2022/12/08 08:38:14;;;;;;;0.90;0.90;;;-9.70;99.90;;;;;;5055598;28;20201;-82
2022/12/08 08:40:40;;;;;;;1.23;1.13;;;-9.60;99.90;;;;;;5090918;28;20255;-81
2022/12/08 08:43:06;;;;;;;1.43;1.33;;;-9.50;99.90;;;;;;5096025;28;20195;-81
2022/12/08 08:45:32;;;;;;;0.60;0.60;;;-9.50;99.90;;;;;;5114031;28;20222;-81
2022/12/08 08:47:58;;;;;;;2.90;1.47;;;-9.40;99.90;;;;;;5113770;28;20669;-85
2022/12/08 08:50:24;;;;;;;0.60;0.60;;;-9.30;99.90;;;;;;5113496;28;20199;-81
2022/12/08 08:52:50;;;;;;;0.60;0.60;;;-9.20;99.90;;;;;;5113712;28;20203;-81
2022/12/08 08:55:16;;;;;;;0.53;0.53;;;-9.20;99.90;;;;;;5113810;28;20191;-81
2022/12/08 08:57:42;;;;;;;0.50;0.50;;;-9.10;99.90;;;;;;5095383;28;20200;-81
2022/12/08 09:00:09;;;;;;;0.70;0.70;;;-9.10;99.90;;;;;;5113721;28;20349;-82
2022/12/08 09:02:36;;;;;;;1.37;1.27;;;-9.00;99.90;;;;;;5113267;28;20617;-80
2022/12/08 09:05:02;;;;;;;1.47;1.37;;;-9.00;99.90;;;;;;5095515;28;20228;-83
2022/12/08 09:07:28;;;;;;;0.80;0.80;;;-8.90;99.90;;;;;;5113577;28;20674;-81
2022/12/08 09:09:54;;;;;;;0.50;0.50;;;-8.90;99.90;;;;;;5113624;28;20201;-81
2022/12/08 09:12:20;;;;;;;0.47;0.47;;;-8.90;99.90;;;;;;5095360;28;20199;-80
2022/12/08 09:14:45;;;;;;;0.50;0.50;;;-8.90;99.90;;;;;;5095297;28;20210;-81
2022/12/08 09:17:11;;;;;;;0.70;0.70;;;-8.90;99.90;;;;;;5095182;28;20211;-82
2022/12/08 09:19:37;;;;;;;0.53;0.53;;;-8.90;99.90;;;;;;5113454;28;20592;-81
2022/12/08 09:22:03;;;;;;;0.60;0.60;;;-8.80;99.90;;;;;;5113673;28;20219;-81
2022/12/08 09:24:29;;;;;;;0.63;0.63;;;-8.80;99.90;;;;;;5112972;28;20191;-82
2022/12/08 09:26:54;;;;;;;0.60;0.60;;;-8.80;99.90;;;;;;5113415;28;20203;-82
2022/12/08 09:29:20;;;;;;;3.07;2.30;;;-8.80;99.90;;;;;;5113237;28;20602;-81
2022/12/08 09:31:46;;;;;;;0.60;0.60;;;-8.70;99.90;;;;;;5113359;28;20192;-82
2022/12/08 09:34:12;;;;;;;0.70;0.70;;;-8.80;99.90;;;;;;5113533;28;20195;-82
2022/12/08 09:36:38;;;;;;;0.87;0.87;;;-8.80;99.90;;;;;;5094672;28;20204;-81
2022/12/08 09:39:04;;;;;;;0.70;0.70;;;-8.80;99.90;;;;;;5113447;28;20718;-82
2022/12/08 09:41:32;;;;;;;0.60;0.60;;;-8.80;99.90;;;;;;5112864;28;20314;-85
2022/12/08 09:44:28;;;;;;;0.50;0.50;;;-8.70;99.90;;;;;;5095081;28;20192;-82
2022/12/08 09:46:57;;;;;;;0.50;0.50;;;-8.70;99.90;;;;;;5113119;28;20780;-82
2022/12/08 09:49:35;;;;;;;2.43;2.23;;;-8.60;99.90;;;;;;5094927;28;20195;-81
2022/12/08 09:52:01;;;;;;;0.97;0.97;;;-8.60;99.90;;;;;;5113238;28;20542;-82
2022/12/08 09:54:36;;;;;;;0.50;0.50;;;-8.60;99.90;;;;;;5113105;28;20202;-81
2022/12/08 09:57:09;;;;;;;0.70;0.70;;;-8.50;99.90;;;;;;5112971;28;20582;-82
2022/12/08 09:59:35;;;;;;;0.60;0.60;;;-8.50;99.90;;;;;;5113220;28;20283;-82
2022/12/08 10:02:05;;;;;;;0.80;0.80;;;-8.40;99.90;;;;;;5112914;28;20680;-81
2022/12/08 10:04:34;;;;;;;0.50;0.50;;;-8.30;99.90;;;;;;5094860;28;20218;-81
2022/12/08 10:07:15;;;;;;;0.50;0.50;;;-8.30;99.90;;;;;;5094902;28;20546;-82
2022/12/08 10:09:44;;;;;;;0.50;0.50;;;-8.30;99.90;;;;;;5094561;28;20720;-81
2022/12/08 10:12:24;;;;;;;0.50;0.50;;;-8.30;99.90;;;;;;5094761;28;20207;-82
2022/12/08 10:14:59;;;;;;;0.60;0.60;;;-8.20;99.90;;;;;;5113045;28;20196;-82
2022/12/08 10:17:47;;;;;;;0.77;0.77;;;-8.20;99.90;;;;;;5113327;28;20199;-82
2022/12/08 10:20:22;;;;;;;0.70;0.70;;;-8.10;99.90;;;;;;5112359;28;20223;-82
2022/12/08 10:23:20;;;;;;;0.50;0.50;;;-8.00;99.90;;;;;;5094860;28;20195;-82
2022/12/08 10:25:52;;;;;;;1.90;1.63;;;-8.00;99.90;;;;;;5113111;28;20635;-82
2022/12/08 10:28:18;;;;;;;0.40;0.40;;;-7.90;99.90;;;;;;5114296;28;20670;-82
2022/12/08 10:30:44;;;;;;;0.83;0.83;;;-7.90;99.90;;;;;;5116723;28;20195;-82
2022/12/08 10:33:18;;;;;;;0.83;0.83;;;-7.80;99.90;;;;;;5116565;28;20195;-82
2022/12/08 10:35:57;;;;;;;0.50;0.50;;;-7.80;99.90;;;;;;5098387;28;20645;-82
2022/12/08 10:38:26;;;;;;;0.60;0.60;;;-7.70;99.90;;;;;;5116432;28;20235;-82
2022/12/08 10:40:58;;;;;;;0.50;0.50;;;-7.70;99.90;;;;;;5116249;28;20784;-82
2022/12/08 10:43:26;;;;;;;2.60;2.13;;;-7.70;99.90;;;;;;5116400;28;20199;-82
2022/12/08 10:45:52;;;;;;;0.50;0.50;;;-7.60;99.90;;;;;;5116795;28;20561;-81
2022/12/08 10:48:22;;;;;;;0.50;0.50;;;-7.50;99.90;;;;;;5097778;28;20225;-77
2022/12/08 10:50:52;;;;;;;6.03;2.30;;;-7.40;99.90;;;;;;5098423;28;20666;-76
2022/12/08 10:53:25;;;;;;;1.13;1.03;;;-7.30;99.90;;;;;;5097628;28;20309;-76
2022/12/08 10:56:01;;;;;;;0.80;0.80;;;-7.30;99.90;;;;;;5098013;28;20201;-76
2022/12/08 10:58:40;;;;;;;0.63;0.63;;;-7.30;99.90;;;;;;5097715;28;20195;-76
2022/12/08 11:01:25;;;;;;;2.53;1.97;;;-7.20;99.90;;;;;;5115954;28;20621;-76
2022/12/08 11:03:57;;;;;;;0.57;0.57;;;-7.30;99.90;;;;;;5115957;28;20669;-76
2022/12/08 11:06:27;;;;;;;0.50;0.50;;;-7.40;99.90;;;;;;5097576;28;20219;-76
2022/12/08 11:08:56;;;;;;;0.50;0.50;;;-7.40;99.90;;;;;;5097443;28;20569;-76
2022/12/08 11:11:36;;;;;;;0.50;0.50;;;-7.50;99.90;;;;;;5097325;28;20684;-76
2022/12/08 11:14:06;;;;;;;1.47;1.37;;;-7.50;99.90;;;;;;5115908;28;20199;-76
2022/12/08 11:16:32;;;;;;;0.60;0.60;;;-7.50;99.90;;;;;;5115699;28;20733;-76
2022/12/08 11:18:58;;;;;;;5.30;2.00;;;-7.50;99.90;;;;;;5097449;28;20238;-76
2022/12/08 11:21:35;;;;;;;0.50;0.50;;;-7.50;99.90;;;;;;5115467;28;20217;-76
2022/12/08 11:24:31;;;;;;;0.50;0.50;;;-7.60;99.90;;;;;;5093728;28;20222;-76
2022/12/08 11:27:05;;;;;;;0.60;0.60;;;-7.50;99.90;;;;;;5094495;28;20675;-76
2022/12/08 11:29:32;;;;;;;0.50;0.50;;;-7.50;99.90;;;;;;5086322;28;20326;-76
2022/12/08 11:32:12;;;;;;;0.50;0.50;;;-7.50;99.90;;;;;;5107046;28;20180;-76
2022/12/08 11:34:45;;;;;;;0.50;0.50;;;-7.50;99.90;;;;;;5114997;28;20205;-76
2022/12/08 11:37:37;;;;;;;0.60;0.60;;;-7.50;99.90;;;;;;5116246;28;20555;-76
2022/12/08 11:40:13;;;;;;;0.57;0.57;;;-7.40;99.90;;;;;;5114794;27;20674;-76
2022/12/08 11:42:54;;;;;;;2.37;1.70;;;-7.40;99.90;;;;;;5076561;28;20233;-76
2022/12/08 11:45:26;;;;;;;0.60;0.60;;;-7.20;99.90;;;;;;5094809;28;20192;-76
2022/12/08 11:48:18;;;;;;;0.60;0.60;;;-7.10;99.90;;;;;;5094457;28;20549;-76
2022/12/08 11:50:55;;;;;;;0.50;0.50;;;-7.10;99.90;;;;;;5072891;28;20572;-76
2022/12/08 11:53:41;;;;;;;1.90;1.80;;;-7.20;99.90;;;;;;5056374;28;20207;-76
2022/12/08 11:56:21;;;;;;;0.50;0.50;;;-7.20;99.90;;;;;;5074440;28;20250;-76
2022/12/08 11:58:52;;;;;;;0.53;0.53;;;-7.30;99.90;;;;;;5054462;28;20212;-76
2022/12/08 12:01:23;;;;;;;0.60;0.60;;;-7.30;99.90;;;;;;5074118;28;20238;-77
2022/12/08 12:04:13;;;;;;;0.47;0.47;;;-7.40;99.90;;;;;;5056198;28;20564;-76
2022/12/08 12:07:12;;;;;;;0.50;0.50;;;-7.40;99.90;;;;;;5073920;28;20203;-76
2022/12/08 12:10:20;;;;;;;0.40;0.40;;;-7.30;99.90;;;;;;5055931;28;20664;-76
2022/12/08 12:12:51;;;;;;;0.50;0.50;;;-7.30;99.90;;;;;;5073902;28;20647;-76
2022/12/08 12:16:01;;;;;;;0.50;0.50;;;-7.20;99.90;;;;;;5056130;28;20212;-75
2022/12/08 12:18:51;;;;;;;1.07;1.03;;;-7.20;99.90;;;;;;5069519;28;20612;-76
2022/12/08 12:21:38;;;;;;;0.70;0.70;;;-7.10;99.90;;;;;;5055746;28;20216;-76
2022/12/08 12:24:14;;;;;;;2.40;2.20;;;-7.10;99.90;;;;;;5067044;28;20207;-76
2022/12/08 12:27:09;;;;;;;1.10;1.10;;;-7.10;99.90;;;;;;5075481;28;20670;-74
2022/12/08 12:29:37;;;;;;;0.50;0.50;;;-7.10;99.90;;;;;;5075578;28;20196;-76
2022/12/08 12:32:06;;;;;;;0.50;0.50;;;-7.20;99.90;;;;;;5075756;28;20200;-76
2022/12/08 12:34:36;;;;;;;0.50;0.50;;;-7.20;99.90;;;;;;5093660;28;20195;-76
2022/12/08 12:37:10;;;;;;;0.60;0.60;;;-7.20;99.90;;;;;;5093857;28;20195;-76
2022/12/08 12:39:51;;;;;;;1.53;1.07;;;-7.30;99.90;;;;;;5075248;28;20675;-76
2022/12/08 12:42:42;;;;;;;0.50;0.50;;;-7.20;99.90;;;;;;5093581;28;20223;-76
2022/12/08 12:45:31;;;;;;;0.50;0.50;;;-7.30;99.90;;;;;;5090880;28;20589;-76
2022/12/08 12:47:57;;;;;;;0.70;0.70;;;-7.30;99.90;;;;;;5113890;28;20230;-76
2022/12/08 12:50:32;;;;;;;0.87;0.87;;;-7.30;99.90;;;;;;5095089;28;20746;-77
2022/12/08 12:53:24;;;;;;;3.30;1.07;;;-7.20;99.90;;;;;;5112612;28;20264;-77
2022/12/08 12:55:56;;;;;;;0.60;0.60;;;-7.20;99.90;;;;;;5056847;28;21055;-76
2022/12/08 12:58:28;;;;;;;0.67;0.67;;;-7.10;99.90;;;;;;5113952;28;20217;-76
2022/12/08 13:01:12;;;;;;;0.50;0.50;;;-7.00;99.90;;;;;;5113663;28;20211;-76